Time;durP1;ratioP1;P1;durP2;ratioP2;P2;SDS_P1;SDS_P2;PMS_P1;PMS_P2;Temp;Humidity;BMP_temperature;BMP_pressure;BME280_temperature;BME280_humidity;BME280_pressure;Samples;Min_cycle;Max_cycle;Signal;HPM_P1;HPM_P2
2022/09/11 00:01:39;;;;;;;36.35;18.60;;;;;;;;;;5066491;28;20037;-85
2022/09/11 00:04:08;;;;;;;37.35;18.90;;;;;;;;;;5044603;28;20038;-87
2022/09/11 00:07:01;;;;;;;40.28;20.58;;;;;;;;;;5043419;28;20162;-86
2022/09/11 00:09:29;;;;;;;42.05;20.88;;;;;;;;;;5047068;28;20726;-86
2022/09/11 00:12:11;;;;;;;44.13;21.08;;;;;;;;;;5040776;28;20384;-85
2022/09/11 00:14:43;;;;;;;38.50;20.45;;;;;;;;;;5043458;28;20578;-85
2022/09/11 00:17:34;;;;;;;43.95;20.77;;;;;;;;;;5036915;28;20045;-84
2022/09/11 00:20:11;;;;;;;44.17;20.63;;;;;;;;;;5039869;28;20045;-86
2022/09/11 00:23:04;;;;;;;41.22;19.83;;;;;;;;;;5050818;28;20439;-86
2022/09/11 00:26:01;;;;;;;43.53;20.45;;;;;;;;;;5059246;28;20040;-83
2022/09/11 00:28:54;;;;;;;36.80;18.70;;;;;;;;;;5035423;28;20475;-84
2022/09/11 00:31:26;;;;;;;39.58;19.25;;;;;;;;;;5046362;28;20043;-84
2022/09/11 00:33:57;;;;;;;35.05;19.35;;;;;;;;;;5053228;28;20048;-84
2022/09/11 00:36:28;;;;;;;39.80;19.13;;;;;;;;;;5047486;28;20046;-84
2022/09/11 00:39:36;;;;;;;36.17;19.35;;;;;;;;;;5061128;28;20053;-85
2022/09/11 00:42:08;;;;;;;37.83;19.85;;;;;;;;;;5031444;28;20079;-85
2022/09/11 00:44:37;;;;;;;36.33;18.75;;;;;;;;;;5037798;28;20049;-84
2022/09/11 00:47:17;;;;;;;35.42;18.67;;;;;;;;;;5046328;28;20045;-83
2022/09/11 00:50:22;;;;;;;34.67;18.48;;;;;;;;;;5059989;28;20511;-84
2022/09/11 00:53:06;;;;;;;35.00;19.25;;;;;;;;;;5063953;28;20041;-84
2022/09/11 00:55:46;;;;;;;36.80;18.77;;;;;;;;;;5052244;28;20037;-84
2022/09/11 00:58:18;;;;;;;41.78;18.80;;;;;;;;;;5047344;28;20045;-85
2022/09/11 01:01:13;;;;;;;40.63;19.50;;;;;;;;;;5052069;28;20040;-85
2022/09/11 01:03:47;;;;;;;37.80;17.88;;;;;;;;;;5063461;28;20041;-85
2022/09/11 01:06:23;;;;;;;35.80;18.08;;;;;;;;;;5037488;28;20045;-85
2022/09/11 01:09:16;;;;;;;33.63;17.90;;;;;;;;;;5049277;28;20040;-84
2022/09/11 01:12:17;;;;;;;34.25;17.80;;;;;;;;;;5046428;28;20120;-84
2022/09/11 01:15:04;;;;;;;36.90;16.75;;;;;;;;;;5048319;28;21082;-84
2022/09/11 01:18:07;;;;;;;35.88;17.55;;;;;;;;;;5065144;28;20067;-84
2022/09/11 01:21:07;;;;;;;32.70;15.98;;;;;;;;;;5045978;28;20036;-85
2022/09/11 01:24:15;;;;;;;35.15;16.75;;;;;;;;;;5029135;28;20395;-85
2022/09/11 01:27:07;;;;;;;28.38;14.55;;;;;;;;;;5039505;28;20561;-84
2022/09/11 01:29:54;;;;;;;35.83;16.45;;;;;;;;;;5043040;28;20037;-84
2022/09/11 01:32:47;;;;;;;36.13;16.02;;;;;;;;;;5039784;28;20487;-84
2022/09/11 01:35:27;;;;;;;34.17;15.32;;;;;;;;;;5024897;28;20055;-84
2022/09/11 01:38:22;;;;;;;51.60;15.95;;;;;;;;;;5045821;28;20411;-84
2022/09/11 01:41:07;;;;;;;29.38;14.23;;;;;;;;;;5044571;28;20041;-84
2022/09/11 01:44:05;;;;;;;27.10;13.15;;;;;;;;;;5044707;28;20033;-83
2022/09/11 01:46:53;;;;;;;29.48;14.23;;;;;;;;;;5054746;28;20136;-86
2022/09/11 01:49:42;;;;;;;29.60;14.50;;;;;;;;;;5042730;28;20406;-85
2022/09/11 01:52:46;;;;;;;33.90;15.23;;;;;;;;;;5032105;28;20052;-84
2022/09/11 01:55:33;;;;;;;40.30;13.82;;;;;;;;;;5028611;28;20041;-84
2022/09/11 01:58:43;;;;;;;43.72;15.43;;;;;;;;;;5039195;28;20053;-85
2022/09/11 02:01:41;;;;;;;31.95;13.07;;;;;;;;;;5029400;28;20039;-86
2022/09/11 02:04:28;;;;;;;33.95;14.90;;;;;;;;;;5040217;28;20140;-85
2022/09/11 02:07:20;;;;;;;32.70;13.77;;;;;;;;;;5026503;28;20051;-84
2022/09/11 02:10:19;;;;;;;35.30;13.20;;;;;;;;;;5041082;28;20044;-84
2022/09/11 02:12:57;;;;;;;35.45;13.98;;;;;;;;;;5043733;28;20083;-84
2022/09/11 02:15:38;;;;;;;34.22;13.55;;;;;;;;;;5027031;28;20064;-84
2022/09/11 02:18:32;;;;;;;31.65;14.45;;;;;;;;;;5062214;28;20044;-85
2022/09/11 02:21:15;;;;;;;38.00;13.45;;;;;;;;;;5047317;28;20045;-85
2022/09/11 02:24:23;;;;;;;31.27;14.15;;;;;;;;;;5056113;28;20037;-85
2022/09/11 02:26:59;;;;;;;33.55;13.75;;;;;;;;;;5052930;28;20066;-85
2022/09/11 02:29:29;;;;;;;34.72;14.13;;;;;;;;;;5047798;28;20052;-85
2022/09/11 02:32:04;;;;;;;33.60;13.10;;;;;;;;;;5046985;28;20045;-84
2022/09/11 02:34:47;;;;;;;29.98;12.25;;;;;;;;;;5031963;28;20041;-84
2022/09/11 02:37:46;;;;;;;35.97;12.68;;;;;;;;;;5030295;28;20395;-83
2022/09/11 02:40:51;;;;;;;31.02;12.95;;;;;;;;;;5046246;28;20049;-84
2022/09/11 02:43:59;;;;;;;29.27;12.95;;;;;;;;;;5042396;28;20091;-84
2022/09/11 02:47:09;;;;;;;27.88;12.68;;;;;;;;;;5061667;28;20056;-84
2022/09/11 02:51:00;;;;;;;29.20;12.40;;;;;;;;;;5044880;28;20060;-84
2022/09/11 02:53:41;;;;;;;25.90;12.73;;;;;;;;;;5023997;28;20076;-86
2022/09/11 02:56:33;;;;;;;25.85;11.20;;;;;;;;;;4995611;28;20041;-84
2022/09/11 02:59:23;;;;;;;25.23;10.65;;;;;;;;;;5006733;28;20076;-85
2022/09/11 03:02:11;;;;;;;31.27;12.52;;;;;;;;;;5003336;28;20416;-84
2022/09/11 03:05:05;;;;;;;27.63;12.40;;;;;;;;;;5009834;28;20084;-84
2022/09/11 03:07:48;;;;;;;30.17;12.38;;;;;;;;;;5002568;28;20136;-86
2022/09/11 03:11:34;;;;;;;28.92;11.43;;;;;;;;;;5019424;28;20136;-83
2022/09/11 03:14:39;;;;;;;23.85;9.82;;;;;;;;;;5006967;28;20045;-85
2022/09/11 03:18:21;;;;;;;21.85;9.82;;;;;;;;;;5019640;28;20526;-83
2022/09/11 03:21:21;;;;;;;34.35;9.88;;;;;;;;;;5003343;28;20191;-86
2022/09/11 03:24:14;;;;;;;24.35;10.10;;;;;;;;;;5022359;28;20045;-85
2022/09/11 03:27:07;;;;;;;21.98;8.63;;;;;;;;;;5064479;28;20040;-85
2022/09/11 03:30:14;;;;;;;23.10;9.73;;;;;;;;;;5043500;28;20104;-83
2022/09/11 03:33:10;;;;;;;21.95;10.02;;;;;;;;;;5031480;28;20033;-85
2022/09/11 03:36:31;;;;;;;19.95;8.98;;;;;;;;;;5047625;28;21143;-83
2022/09/11 03:40:19;;;;;;;24.80;10.52;;;;;;;;;;5048592;28;20052;-83
2022/09/11 03:43:08;;;;;;;25.60;9.82;;;;;;;;;;5047586;28;20037;-84
2022/09/11 03:46:37;;;;;;;21.17;9.68;;;;;;;;;;5044265;28;20064;-83
2022/09/11 03:49:19;;;;;;;23.15;9.80;;;;;;;;;;5038249;28;20542;-86
2022/09/11 03:52:25;;;;;;;19.17;9.20;;;;;;;;;;5042401;28;20045;-85
2022/09/11 03:55:07;;;;;;;21.52;9.98;;;;;;;;;;5070572;28;20045;-85
2022/09/11 03:57:59;;;;;;;26.00;9.98;;;;;;;;;;5066681;28;20029;-85
2022/09/11 04:00:32;;;;;;;21.25;9.23;;;;;;;;;;5061884;28;20125;-85
2022/09/11 04:03:01;;;;;;;20.75;8.85;;;;;;;;;;5050208;28;20398;-85
2022/09/11 04:05:43;;;;;;;22.40;8.25;;;;;;;;;;5032590;28;20082;-86
2022/09/11 04:08:35;;;;;;;23.05;9.50;;;;;;;;;;5046395;28;20037;-84
2022/09/11 04:11:30;;;;;;;29.02;8.70;;;;;;;;;;5030619;28;20037;-86
2022/09/11 04:14:24;;;;;;;19.08;8.88;;;;;;;;;;5031611;28;20406;-84
2022/09/11 04:17:09;;;;;;;18.85;8.60;;;;;;;;;;5053354;28;20040;-85
2022/09/11 04:19:38;;;;;;;18.65;8.38;;;;;;;;;;5054854;28;20053;-85
2022/09/11 04:22:11;;;;;;;21.67;8.93;;;;;;;;;;5066342;28;20068;-84
2022/09/11 04:24:53;;;;;;;21.50;9.00;;;;;;;;;;5052290;28;20049;-83
2022/09/11 04:28:40;;;;;;;21.45;8.65;;;;;;;;;;5043207;28;20049;-83
2022/09/11 04:32:07;;;;;;;19.45;8.95;;;;;;;;;;5039159;28;20072;-83
2022/09/11 04:34:35;;;;;;;20.20;8.98;;;;;;;;;;5056025;28;20049;-84
2022/09/11 04:37:05;;;;;;;19.60;8.70;;;;;;;;;;5060923;28;20057;-84
2022/09/11 04:39:53;;;;;;;20.08;10.20;;;;;;;;;;5047006;28;20160;-84
2022/09/11 04:42:37;;;;;;;22.92;9.43;;;;;;;;;;5037877;28;20052;-84
2022/09/11 04:45:07;;;;;;;19.38;8.38;;;;;;;;;;5056300;28;20052;-84
2022/09/11 04:48:01;;;;;;;25.63;8.02;;;;;;;;;;5031341;28;20029;-84
2022/09/11 04:50:35;;;;;;;18.98;8.27;;;;;;;;;;5048021;28;20068;-84
2022/09/11 04:53:18;;;;;;;18.73;8.38;;;;;;;;;;5026640;28;20037;-85
2022/09/11 04:56:30;;;;;;;20.13;8.63;;;;;;;;;;5055635;28;20147;-84
2022/09/11 04:59:52;;;;;;;19.90;8.43;;;;;;;;;;5051744;28;20486;-83
2022/09/11 05:03:12;;;;;;;21.13;8.88;;;;;;;;;;5045477;28;20107;-84
2022/09/11 05:06:23;;;;;;;22.45;9.65;;;;;;;;;;5032068;28;20523;-83
2022/09/11 05:09:10;;;;;;;23.67;8.95;;;;;;;;;;5037888;28;20060;-85
2022/09/11 05:11:45;;;;;;;21.88;8.82;;;;;;;;;;5048442;28;20067;-86
2022/09/11 05:14:39;;;;;;;18.50;8.23;;;;;;;;;;5039347;28;20128;-86
2022/09/11 05:17:13;;;;;;;24.98;9.82;;;;;;;;;;5032242;28;20041;-85
2022/09/11 05:19:43;;;;;;;24.90;10.18;;;;;;;;;;5037389;28;20037;-86
2022/09/11 05:22:22;;;;;;;24.08;9.60;;;;;;;;;;5040810;28;20156;-86
2022/09/11 05:25:00;;;;;;;26.85;10.35;;;;;;;;;;5022371;28;20127;-86
2022/09/11 05:27:37;;;;;;;28.67;10.95;;;;;;;;;;5055994;28;20422;-85
2022/09/11 05:30:32;;;;;;;27.75;10.65;;;;;;;;;;5035995;28;20382;-83
2022/09/11 05:33:25;;;;;;;26.35;10.35;;;;;;;;;;5022152;28;20045;-83
2022/09/11 05:35:54;;;;;;;23.25;9.98;;;;;;;;;;5041225;28;20136;-85
2022/09/11 05:38:47;;;;;;;31.23;11.27;;;;;;;;;;5066052;28;20068;-85
2022/09/11 05:41:21;;;;;;;31.08;10.90;;;;;;;;;;5052912;28;20464;-85
2022/09/11 05:43:57;;;;;;;27.02;10.40;;;;;;;;;;5051664;28;20025;-85
2022/09/11 05:46:49;;;;;;;31.33;11.40;;;;;;;;;;5054274;28;20048;-85
2022/09/11 05:49:31;;;;;;;24.23;9.85;;;;;;;;;;5061058;28;20080;-83
2022/09/11 05:52:54;;;;;;;25.27;11.18;;;;;;;;;;5045488;28;20037;-83
2022/09/11 05:58:45;;;;;;;23.83;9.87;;;;;;;;;;5041823;28;20128;-83
2022/09/11 06:01:38;;;;;;;28.42;10.20;;;;;;;;;;5026302;28;20037;-83
2022/09/11 06:04:51;;;;;;;22.17;10.27;;;;;;;;;;5036123;28;20037;-84
2022/09/11 06:07:45;;;;;;;22.33;10.48;;;;;;;;;;5023653;28;20087;-83
2022/09/11 06:10:32;;;;;;;22.85;10.27;;;;;;;;;;5051262;28;20056;-83
2022/09/11 06:13:18;;;;;;;23.00;9.88;;;;;;;;;;5022943;28;20207;-83
2022/09/11 06:16:31;;;;;;;21.92;9.10;;;;;;;;;;5037990;28;20057;-83
2022/09/11 06:19:15;;;;;;;21.23;9.27;;;;;;;;;;5041576;28;20048;-83
2022/09/11 06:21:59;;;;;;;19.98;10.10;;;;;;;;;;5037866;28;20099;-83
2022/09/11 06:24:54;;;;;;;24.13;9.55;;;;;;;;;;5029767;28;20156;-83
2022/09/11 06:27:39;;;;;;;22.00;10.18;;;;;;;;;;5038757;28;20504;-83
2022/09/11 06:30:21;;;;;;;19.00;8.95;;;;;;;;;;5026877;28;20052;-86
2022/09/11 06:33:09;;;;;;;17.52;9.27;;;;;;;;;;5044062;28;20045;-86
2022/09/11 06:35:59;;;;;;;18.77;9.38;;;;;;;;;;5038895;28;20049;-86
2022/09/11 06:38:27;;;;;;;18.55;9.85;;;;;;;;;;5057576;28;20029;-85
2022/09/11 06:41:21;;;;;;;19.02;9.52;;;;;;;;;;5055828;28;20545;-85
2022/09/11 06:44:29;;;;;;;17.52;9.30;;;;;;;;;;5041042;28;20041;-86
2022/09/11 06:47:12;;;;;;;19.95;9.88;;;;;;;;;;5031069;28;20522;-86
2022/09/11 06:50:01;;;;;;;17.67;9.35;;;;;;;;;;5043895;28;20140;-87
2022/09/11 06:54:06;;;;;;;17.92;9.88;;;;;;;;;;5056883;28;20052;-83
2022/09/11 06:57:16;;;;;;;15.82;8.70;;;;;;;;;;4984934;28;20069;-86
2022/09/11 07:00:03;;;;;;;16.98;8.48;;;;;;;;;;5000681;28;20506;-84
2022/09/11 07:04:10;;;;;;;15.50;8.93;;;;;;;;;;5028414;28;20133;-83
2022/09/11 07:07:00;;;;;;;14.80;8.43;;;;;;;;;;5006544;28;20061;-86
2022/09/11 07:09:45;;;;;;;15.68;9.68;;;;;;;;;;4993983;28;20503;-86
2022/09/11 07:12:40;;;;;;;16.85;8.73;;;;;;;;;;5009174;28;20056;-86
2022/09/11 07:15:30;;;;;;;14.38;8.50;;;;;;;;;;4991469;28;20179;-83
2022/09/11 07:18:13;;;;;;;14.02;8.10;;;;;;;;;;4993919;28;20068;-83
2022/09/11 07:21:13;;;;;;;13.32;8.43;;;;;;;;;;5027174;28;20046;-85
2022/09/11 07:24:16;;;;;;;12.30;7.10;;;;;;;;;;5022850;28;20054;-84
2022/09/11 07:28:18;;;;;;;11.00;7.45;;;;;;;;;;5024639;28;20098;-83
2022/09/11 07:31:37;;;;;;;10.63;6.90;;;;;;;;;;5055677;28;20032;-83
2022/09/11 07:38:37;;;;;;;10.95;6.95;;;;;;;;;;5044190;28;20053;-83
2022/09/11 07:42:27;;;;;;;11.48;6.93;;;;;;;;;;5048069;28;20080;-82
2022/09/11 07:46:20;;;;;;;9.98;5.95;;;;;;;;;;5053488;28;20482;-82
2022/09/11 07:50:01;;;;;;;10.90;6.70;;;;;;;;;;5046831;28;20079;-83
2022/09/11 07:53:12;;;;;;;11.43;6.60;;;;;;;;;;5055581;28;20048;-83
2022/09/11 07:57:01;;;;;;;10.63;6.68;;;;;;;;;;5025000;28;20072;-83
2022/09/11 08:00:26;;;;;;;11.68;6.82;;;;;;;;;;5042958;28;20048;-83
2022/09/11 08:04:13;;;;;;;9.98;6.30;;;;;;;;;;5046777;28;20397;-83
2022/09/11 08:07:57;;;;;;;10.82;6.38;;;;;;;;;;5040115;28;20119;-84
2022/09/11 08:11:07;;;;;;;10.55;6.43;;;;;;;;;;5043435;28;20133;-85
2022/09/11 08:14:06;;;;;;;12.18;6.25;;;;;;;;;;5028475;28;20048;-85
2022/09/11 08:16:55;;;;;;;10.32;6.97;;;;;;;;;;5051028;28;20094;-84
2022/09/11 08:19:29;;;;;;;10.48;6.80;;;;;;;;;;5026946;28;20437;-85
2022/09/11 08:23:02;;;;;;;9.98;6.88;;;;;;;;;;5041905;28;20541;-86
2022/09/11 08:27:31;;;;;;;9.02;5.45;;;;;;;;;;4998629;28;20046;-84
2022/09/11 08:31:12;;;;;;;8.75;5.60;;;;;;;;;;4999072;28;20800;-84
2022/09/11 08:34:59;;;;;;;7.45;5.22;;;;;;;;;;4930060;29;20051;-84
2022/09/11 08:39:25;;;;;;;6.68;4.28;;;;;;;;;;4945910;29;20138;-86
2022/09/11 08:43:56;;;;;;;6.70;4.15;;;;;;;;;;4940009;29;20043;-86
2022/09/11 08:48:33;;;;;;;7.00;4.18;;;;;;;;;;4944024;28;20498;-84
2022/09/11 08:52:14;;;;;;;6.85;4.63;;;;;;;;;;4944362;28;20047;-86
2022/09/11 08:55:33;;;;;;;6.55;4.20;;;;;;;;;;4943406;28;20039;-86
2022/09/11 08:59:50;;;;;;;5.90;3.90;;;;;;;;;;4957951;28;20046;-84
2022/09/11 09:04:08;;;;;;;4.97;3.50;;;;;;;;;;4922787;28;20078;-83
2022/09/11 09:07:50;;;;;;;6.68;4.05;;;;;;;;;;4938022;28;20061;-84
2022/09/11 09:11:30;;;;;;;5.00;2.95;;;;;;;;;;4940539;28;20509;-84
2022/09/11 09:14:57;;;;;;;4.45;2.60;;;;;;;;;;4882013;29;20499;-85
2022/09/11 09:18:06;;;;;;;3.90;2.70;;;;;;;;;;4869681;29;20064;-84
2022/09/11 09:20:59;;;;;;;4.93;3.15;;;;;;;;;;4899903;29;20134;-84
2022/09/11 09:24:18;;;;;;;4.50;3.20;;;;;;;;;;4926422;29;20056;-83
2022/09/11 09:27:34;;;;;;;5.00;3.40;;;;;;;;;;4924009;29;20052;-83
2022/09/11 09:30:33;;;;;;;4.82;3.17;;;;;;;;;;4904790;29;20070;-84
2022/09/11 09:33:14;;;;;;;5.22;3.28;;;;;;;;;;4902777;29;20432;-84
2022/09/11 09:35:43;;;;;;;4.97;3.30;;;;;;;;;;4905447;29;20051;-84
2022/09/11 09:38:19;;;;;;;4.28;2.88;;;;;;;;;;4891519;29;20115;-84
2022/09/11 09:41:23;;;;;;;4.20;2.65;;;;;;;;;;4905653;29;21343;-84
2022/09/11 09:44:10;;;;;;;4.55;2.58;;;;;;;;;;4935671;28;20173;-84
2022/09/11 09:46:49;;;;;;;4.35;2.47;;;;;;;;;;4975335;28;20043;-84
2022/09/11 09:49:25;;;;;;;4.88;3.25;;;;;;;;;;4976485;28;20069;-84
2022/09/11 09:52:23;;;;;;;11.60;9.00;;;;;;;;;;5033070;28;20049;-84
2022/09/11 09:55:25;;;;;;;5.05;3.70;;;;;;;;;;5035177;28;20057;-84
2022/09/11 09:58:07;;;;;;;3.45;1.90;;;;;;;;;;5020651;28;20111;-85
2022/09/11 10:00:58;;;;;;;6.90;2.38;;;;;;;;;;5021117;28;20049;-85
2022/09/11 10:03:56;;;;;;;;;;;;;;;;;;5016248;28;20513;-85
2022/09/11 10:07:31;;;;;;;4.80;2.22;;;;;;;;;;5036928;28;19925;-85
2022/09/11 10:10:43;;;;;;;3.30;1.80;;;;;;;;;;5028422;28;20773;-85
2022/09/11 10:15:23;;;;;;;12.70;6.70;;;;;;;;;;5040592;28;20128;-87
2022/09/11 10:18:52;;;;;;;3.83;2.37;;;;;;;;;;5040452;28;20033;-85
2022/09/11 10:21:39;;;;;;;18.83;8.48;;;;;;;;;;5055559;28;20048;-85
2022/09/11 10:24:51;;;;;;;3.92;2.38;;;;;;;;;;5043431;28;20037;-85
2022/09/11 10:27:45;;;;;;;3.42;1.90;;;;;;;;;;5015463;28;20135;-86
2022/09/11 10:30:58;;;;;;;3.03;1.58;;;;;;;;;;5044432;28;20410;-85
2022/09/11 10:34:14;;;;;;;5.03;1.60;;;;;;;;;;5049373;28;20107;-84
2022/09/11 10:37:35;;;;;;;3.72;1.90;;;;;;;;;;5031121;28;20396;-85
2022/09/11 10:41:48;;;;;;;4.10;2.53;;;;;;;;;;5042016;28;20040;-85
2022/09/11 10:45:35;;;;;;;3.03;1.90;;;;;;;;;;5038676;28;20045;-85
2022/09/11 10:48:21;;;;;;;3.85;1.90;;;;;;;;;;5039550;28;20159;-85
2022/09/11 10:51:29;;;;;;;3.20;2.00;;;;;;;;;;5041888;28;20061;-86
2022/09/11 10:55:28;;;;;;;4.65;2.00;;;;;;;;;;5049340;28;20048;-85
2022/09/11 10:59:03;;;;;;;2.88;1.70;;;;;;;;;;5043041;28;20045;-84
2022/09/11 11:01:46;;;;;;;2.55;1.45;;;;;;;;;;5016583;28;20502;-86
2022/09/11 11:05:15;;;;;;;3.58;1.60;;;;;;;;;;5024927;28;20134;-85
2022/09/11 11:09:12;;;;;;;2.80;1.60;;;;;;;;;;5039070;28;20041;-85
2022/09/11 11:12:02;;;;;;;3.42;1.30;;;;;;;;;;5057837;28;20479;-85
2022/09/11 11:16:16;;;;;;;3.10;1.38;;;;;;;;;;5037710;28;20068;-84
2022/09/11 11:20:46;;;;;;;2.42;1.42;;;;;;;;;;5041574;28;20041;-84
2022/09/11 11:25:24;;;;;;;3.00;1.70;;;;;;;;;;4927729;29;20146;-84
2022/09/11 11:29:42;;;;;;;2.38;1.40;;;;;;;;;;4936984;28;20046;-84
2022/09/11 11:34:05;;;;;;;3.45;1.50;;;;;;;;;;4945393;28;20055;-87
2022/09/11 11:37:51;;;;;;;2.55;1.40;;;;;;;;;;4906220;29;20056;-85
2022/09/11 11:40:53;;;;;;;2.55;1.63;;;;;;;;;;4905092;29;20071;-85
2022/09/11 11:43:39;;;;;;;2.95;1.38;;;;;;;;;;4909073;29;20056;-84
2022/09/11 11:46:14;;;;;;;2.38;1.50;;;;;;;;;;4899920;29;20565;-84
2022/09/11 11:49:00;;;;;;;2.55;1.40;;;;;;;;;;4908058;29;20056;-83
2022/09/11 11:51:34;;;;;;;2.30;1.30;;;;;;;;;;4908543;29;20060;-83
2022/09/11 11:54:23;;;;;;;2.20;1.30;;;;;;;;;;4892478;29;20136;-83
2022/09/11 11:57:19;;;;;;;2.22;1.35;;;;;;;;;;4907750;29;20067;-83
2022/09/11 12:00:00;;;;;;;1.98;1.02;;;;;;;;;;4908389;29;20145;-83
2022/09/11 12:03:10;;;;;;;3.08;1.20;;;;;;;;;;4926198;29;20083;-84
2022/09/11 12:05:39;;;;;;;2.30;1.13;;;;;;;;;;4946648;28;20128;-84
2022/09/11 12:08:31;;;;;;;2.17;1.30;;;;;;;;;;5031157;28;20057;-84
2022/09/11 12:11:06;;;;;;;2.17;1.10;;;;;;;;;;5022187;28;20493;-84
2022/09/11 12:13:41;;;;;;;3.35;1.15;;;;;;;;;;5043046;28;20131;-84
2022/09/11 12:16:30;;;;;;;2.22;1.15;;;;;;;;;;5038915;28;20398;-84
2022/09/11 12:19:14;;;;;;;2.17;1.17;;;;;;;;;;5022200;28;20140;-84
2022/09/11 12:22:04;;;;;;;2.28;1.20;;;;;;;;;;5038031;28;20055;-85
2022/09/11 12:24:49;;;;;;;2.40;1.20;;;;;;;;;;5033178;28;20483;-85
2022/09/11 12:27:37;;;;;;;3.30;1.50;;;;;;;;;;5039185;28;20070;-85
2022/09/11 12:31:03;;;;;;;;;;;;;;;;;;5037894;28;20046;-85
2022/09/11 12:34:25;;;;;;;2.78;1.45;;;;;;;;;;5037943;28;20041;-85
2022/09/11 12:39:21;;;;;;;3.28;1.40;;;;;;;;;;4995255;28;20037;-86
2022/09/11 12:43:48;;;;;;;2.35;1.17;;;;;;;;;;4980653;28;20042;-85
2022/09/11 12:52:26;;;;;;;3.00;1.35;;;;;;;;;;4975899;28;20059;-85
2022/09/11 12:57:18;;;;;;;3.80;1.42;;;;;;;;;;4980772;28;20345;-84
2022/09/11 13:02:16;;;;;;;3.05;1.67;;;;;;;;;;4956422;28;20050;-85
2022/09/11 13:16:37;;;;;;;2.38;1.30;;;;;;;;;;4831971;29;20153;-85
2022/09/11 13:35:01;;;;;;;2.28;1.02;;;;;;;;;;4758238;29;20043;-86
2022/09/11 13:39:34;;;;;;;2.58;1.20;;;;;;;;;;4790225;29;20046;-87
2022/09/11 14:12:19;;;;;;;1.90;1.00;;;;;;;;;;4866715;29;20049;-86
2022/09/11 14:17:04;;;;;;;2.58;1.10;;;;;;;;;;4842050;29;20054;-86
2022/09/11 14:31:40;;;;;;;3.55;1.25;;;;;;;;;;4851414;29;20052;-87
2022/09/11 14:37:09;;;;;;;2.25;1.23;;;;;;;;;;4869161;29;20037;-87
2022/09/11 14:42:21;;;;;;;3.22;1.33;;;;;;;;;;4765483;29;20054;-88
2022/09/11 17:28:19;;;;;;;4.03;2.10;;;;;;;;;;5542374;22;15752300;-84
2022/09/11 17:31:54;;;;;;;3.20;1.90;;;;;;;;;;6177341;23;20320;-84
2022/09/11 17:35:25;;;;;;;4.25;1.80;;;;;;;;;;6113217;23;20033;-85
2022/09/11 17:38:08;;;;;;;3.88;2.17;;;;;;;;;;6077967;23;20025;-84
2022/09/11 17:40:40;;;;;;;2.70;1.70;;;;;;;;;;6123609;23;20137;-84
2022/09/11 17:43:21;;;;;;;4.10;1.83;;;;;;;;;;6063385;23;20032;-84
2022/09/11 17:46:29;;;;;;;2.85;1.63;;;;;;;;;;6092822;23;20017;-85
2022/09/11 17:49:15;;;;;;;5.55;2.40;;;;;;;;;;6102890;23;20018;-84
2022/09/11 17:51:45;;;;;;;4.22;2.13;;;;;;;;;;6121928;23;20032;-85
2022/09/11 17:54:48;;;;;;;3.63;1.83;;;;;;;;;;6096371;23;20025;-84
2022/09/11 17:58:12;;;;;;;4.75;1.80;;;;;;;;;;6100188;23;20030;-84
2022/09/11 18:02:20;;;;;;;5.30;2.42;;;;;;;;;;6110928;23;20030;-85
2022/09/11 18:06:53;;;;;;;3.20;1.92;;;;;;;;;;5997818;23;20179;-85
2022/09/11 18:10:18;;;;;;;6.82;2.30;;;;;;;;;;5997660;23;20072;-85
2022/09/11 18:14:37;;;;;;;6.60;3.10;;;;;;;;;;5997778;23;20027;-86
2022/09/11 18:27:29;;;;;;;6.18;3.33;;;;;;;;;;5870685;24;20063;-84
2022/09/11 18:30:15;;;;;;;6.00;3.10;;;;;;;;;;5859001;24;20029;-85
2022/09/11 18:34:18;;;;;;;7.80;3.53;;;;;;;;;;5846268;24;20101;-84
2022/09/11 18:38:52;;;;;;;6.40;3.20;;;;;;;;;;5889930;24;20035;-85
2022/09/11 18:42:50;;;;;;;4.80;2.97;;;;;;;;;;5859025;24;20052;-85
2022/09/11 18:46:38;;;;;;;7.57;2.92;;;;;;;;;;5819981;24;20853;-85
2022/09/11 18:50:13;;;;;;;5.30;2.33;;;;;;;;;;5807125;24;20026;-86
2022/09/11 19:09:02;;;;;;;4.35;2.42;;;;;;;;;;5847056;24;20582;-85
2022/09/11 19:12:41;;;;;;;4.70;2.63;;;;;;;;;;5860140;24;20142;-86
2022/09/11 19:15:55;;;;;;;5.00;2.38;;;;;;;;;;5865523;24;20033;-85
2022/09/11 19:19:06;;;;;;;3.97;2.60;;;;;;;;;;5887951;24;20066;-86
2022/09/11 19:21:53;;;;;;;5.03;2.63;;;;;;;;;;5887207;24;20179;-85
2022/09/11 19:26:02;;;;;;;5.97;2.85;;;;;;;;;;5887558;24;20029;-85
2022/09/11 19:30:35;;;;;;;6.88;2.80;;;;;;;;;;5882641;24;20153;-85
2022/09/11 19:33:50;;;;;;;6.00;3.08;;;;;;;;;;5888739;24;20517;-86
2022/09/11 19:38:19;;;;;;;4.90;2.90;;;;;;;;;;5856045;24;20779;-85
2022/09/11 19:41:25;;;;;;;6.80;2.95;;;;;;;;;;5804662;24;20031;-85
2022/09/11 19:44:33;;;;;;;5.68;3.08;;;;;;;;;;5851552;24;20094;-85
2022/09/11 19:47:46;;;;;;;6.97;2.90;;;;;;;;;;5861550;24;20481;-85
2022/09/11 19:50:34;;;;;;;5.07;2.65;;;;;;;;;;5831392;24;20034;-85
2022/09/11 19:54:44;;;;;;;4.80;2.80;;;;;;;;;;5915514;24;20036;-84
2022/09/11 19:58:50;;;;;;;4.50;2.78;;;;;;;;;;5888891;24;20074;-84
2022/09/11 20:03:18;;;;;;;5.85;2.70;;;;;;;;;;5887465;24;20799;-85
2022/09/11 20:06:46;;;;;;;5.47;2.67;;;;;;;;;;5926225;24;20394;-85
2022/09/11 20:09:14;;;;;;;7.47;3.03;;;;;;;;;;5930433;24;20366;-84
2022/09/11 20:12:59;;;;;;;10.80;3.15;;;;;;;;;;5985854;23;20103;-84
2022/09/11 20:16:11;;;;;;;4.75;2.60;;;;;;;;;;5999516;23;20028;-86
2022/09/11 20:18:56;;;;;;;4.82;2.83;;;;;;;;;;6053498;23;20022;-85
2022/09/11 20:21:43;;;;;;;5.97;2.78;;;;;;;;;;6056860;23;20046;-86
2022/09/11 20:25:25;;;;;;;5.25;2.70;;;;;;;;;;6056490;23;20391;-85
2022/09/11 20:29:38;;;;;;;5.20;3.00;;;;;;;;;;6080921;23;20038;-84
2022/09/11 20:32:21;;;;;;;8.50;3.00;;;;;;;;;;6057861;23;20182;-86
2022/09/11 20:35:22;;;;;;;8.88;3.20;;;;;;;;;;6088327;23;20026;-84
2022/09/11 20:37:52;;;;;;;4.45;2.60;;;;;;;;;;6095393;23;20026;-85
2022/09/11 20:40:21;;;;;;;4.57;2.72;;;;;;;;;;6062764;23;20104;-85
2022/09/11 20:43:05;;;;;;;5.10;2.63;;;;;;;;;;6067556;23;20530;-85
2022/09/11 20:45:53;;;;;;;7.10;2.70;;;;;;;;;;6096480;23;20732;-85
2022/09/11 20:48:39;;;;;;;6.32;2.90;;;;;;;;;;6060647;23;20032;-86
2022/09/11 20:51:22;;;;;;;4.75;2.60;;;;;;;;;;6071908;23;20026;-86
2022/09/11 20:55:14;;;;;;;;;;;;;;;;;;6086360;23;20026;-84
2022/09/11 20:59:30;;;;;;;4.88;2.88;;;;;;;;;;6090141;23;20001;-84
2022/09/11 21:02:58;;;;;;;7.30;2.83;;;;;;;;;;6176877;23;20055;-86
2022/09/11 21:05:45;;;;;;;5.22;3.00;;;;;;;;;;6115668;23;20028;-86
2022/09/11 21:08:34;;;;;;;5.80;2.90;;;;;;;;;;6150135;23;20017;-85
2022/09/11 21:11:19;;;;;;;4.25;2.63;;;;;;;;;;6216128;23;20036;-85
2022/09/11 21:14:09;;;;;;;5.13;3.10;;;;;;;;;;6185655;23;20028;-85
2022/09/11 21:17:13;;;;;;;;;;;;;;;;;;6192888;23;20024;-85
2022/09/11 21:21:02;;;;;;;5.63;3.15;;;;;;;;;;6206769;23;19919;-83
2022/09/11 21:24:02;;;;;;;8.07;3.22;;;;;;;;;;6160484;23;20103;-85
2022/09/11 21:26:50;;;;;;;5.90;2.70;;;;;;;;;;6159192;23;20024;-86
2022/09/11 21:30:52;;;;;;;5.18;3.35;;;;;;;;;;6166839;23;20027;-85
2022/09/11 21:34:00;;;;;;;;;;;;;;;;;;6066456;23;20566;-85
2022/09/11 21:38:07;;;;;;;5.90;3.00;;;;;;;;;;6055449;23;19922;-85
2022/09/11 21:41:38;;;;;;;8.73;3.30;;;;;;;;;;6054944;23;20022;-85
2022/09/11 21:44:46;;;;;;;5.25;3.08;;;;;;;;;;6055925;23;20026;-86
2022/09/11 21:47:33;;;;;;;8.02;4.07;;;;;;;;;;6025363;23;20101;-86
2022/09/11 21:50:15;;;;;;;5.13;3.05;;;;;;;;;;6023684;23;20031;-86
2022/09/11 21:53:35;;;;;;;5.63;3.05;;;;;;;;;;6012561;23;20090;-85
2022/09/11 21:56:55;;;;;;;5.55;3.95;;;;;;;;;;6027781;23;20053;-84
2022/09/11 21:59:44;;;;;;;5.68;3.30;;;;;;;;;;6015456;23;20023;-84
2022/09/11 22:02:56;;;;;;;4.60;3.10;;;;;;;;;;6013871;23;20034;-84
2022/09/11 22:05:42;;;;;;;8.80;3.20;;;;;;;;;;6037434;23;20027;-84
2022/09/11 22:08:43;;;;;;;6.07;3.53;;;;;;;;;;6073729;23;20053;-85
2022/09/11 22:11:31;;;;;;;6.10;3.28;;;;;;;;;;6086415;23;20036;-86
2022/09/11 22:14:17;;;;;;;5.72;3.65;;;;;;;;;;6093564;23;20021;-85
2022/09/11 22:17:10;;;;;;;;;;;;;;;;;;6140056;23;20025;-85
2022/09/11 22:21:00;;;;;;;5.70;3.40;;;;;;;;;;6121343;23;19939;-85
2022/09/11 22:24:16;;;;;;;6.80;3.17;;;;;;;;;;6121844;23;20031;-85
2022/09/11 22:28:38;;;;;;;5.25;3.17;;;;;;;;;;6131579;23;20039;-85
2022/09/11 22:31:27;;;;;;;5.22;3.28;;;;;;;;;;6054538;23;20090;-86
2022/09/11 22:34:16;;;;;;;6.22;3.28;;;;;;;;;;5991150;23;20027;-85
2022/09/11 22:37:07;;;;;;;5.32;2.92;;;;;;;;;;6035997;23;20026;-87
2022/09/11 22:41:23;;;;;;;6.85;3.40;;;;;;;;;;6013214;23;20546;-85
2022/09/11 22:44:32;;;;;;;4.90;3.20;;;;;;;;;;6027163;23;20470;-86
2022/09/11 22:52:34;;;;;;;5.32;2.88;;;;;;;;;;5969629;24;20036;-85
2022/09/11 22:55:16;;;;;;;5.55;3.63;;;;;;;;;;5949653;24;20024;-85
2022/09/11 22:57:59;;;;;;;5.95;3.30;;;;;;;;;;5996717;23;20050;-85
2022/09/11 23:01:27;;;;;;;4.32;2.80;;;;;;;;;;5988336;23;20132;-85
2022/09/11 23:07:13;;;;;;;5.70;3.20;;;;;;;;;;6011889;23;20027;-87
2022/09/11 23:09:07;;;;;;;4.97;3.25;;;;;;;;;;6027298;23;20122;-84
2022/09/11 23:12:51;;;;;;;5.22;3.00;;;;;;;;;;6026246;23;20099;-85
2022/09/11 23:16:57;;;;;;;5.18;3.13;;;;;;;;;;5970462;24;20036;-85
2022/09/11 23:21:22;;;;;;;4.72;2.90;;;;;;;;;;5944219;24;20101;-85